Time;durP1;ratioP1;P1;durP2;ratioP2;P2;SDS_P1;SDS_P2;PMS_P1;PMS_P2;Temp;Humidity;BMP_temperature;BMP_pressure;BME280_temperature;BME280_humidity;BME280_pressure;Samples;Min_cycle;Max_cycle;Signal;HPM_P1;HPM_P2
2020/12/31 00:00:43;;;;;;;6.77;6.00;;;0.80;99.90;-0.60;95787.00;;;;6151109;23;20413;-69
2020/12/31 00:03:10;;;;;;;7.13;5.63;;;0.80;99.90;-0.60;95786.00;;;;6152174;23;20833;-68
2020/12/31 00:05:38;;;;;;;8.97;7.03;;;0.70;99.90;-0.60;95788.00;;;;6153032;23;21014;-69
2020/12/31 00:08:06;;;;;;;10.07;6.17;;;0.70;99.90;-0.60;95781.00;;;;6152909;23;20401;-68
2020/12/31 00:10:34;;;;;;;9.03;6.80;;;0.70;99.90;-0.60;95784.00;;;;6152931;23;20432;-69
2020/12/31 00:13:01;;;;;;;8.20;5.67;;;0.70;99.90;-0.60;95785.00;;;;6153405;23;20405;-68
2020/12/31 00:15:29;;;;;;;8.50;6.53;;;0.70;99.90;-0.70;95786.00;;;;6153376;23;20397;-68
2020/12/31 00:17:56;;;;;;;8.70;5.87;;;0.70;99.90;-0.70;95785.00;;;;6152719;23;20484;-69
2020/12/31 00:20:24;;;;;;;8.40;5.63;;;0.70;99.90;-0.60;95793.00;;;;6152925;23;20413;-68
2020/12/31 00:22:51;;;;;;;7.47;6.20;;;0.70;99.90;-0.60;95787.00;;;;6152843;23;20436;-68
2020/12/31 00:25:20;;;;;;;7.67;6.47;;;0.70;99.90;-0.60;95796.00;;;;6153324;23;20448;-69
2020/12/31 00:27:48;;;;;;;12.13;6.47;;;0.70;99.90;-0.60;95801.00;;;;6152094;23;20405;-68
2020/12/31 00:30:16;;;;;;;9.17;6.27;;;0.70;99.90;-0.50;95794.00;;;;6153477;23;20401;-68
2020/12/31 00:32:44;;;;;;;7.13;5.67;;;0.70;99.90;-0.60;95800.00;;;;6152760;23;20782;-69
2020/12/31 00:35:14;;;;;;;7.17;6.13;;;0.70;99.90;-0.50;95795.00;;;;6152977;23;20416;-68
2020/12/31 00:37:41;;;;;;;6.33;5.10;;;0.70;99.90;-0.50;95792.00;;;;6151424;23;20401;-68
2020/12/31 00:40:09;;;;;;;8.27;5.63;;;0.80;99.90;-0.50;95795.00;;;;6152721;23;20502;-68
2020/12/31 00:42:36;;;;;;;9.77;6.50;;;0.70;99.90;-0.40;95803.00;;;;6152571;23;20432;-68
2020/12/31 00:45:05;;;;;;;7.17;6.07;;;0.80;99.90;-0.50;95816.00;;;;6152419;23;20686;-68
2020/12/31 00:47:32;;;;;;;7.47;5.63;;;0.70;99.90;-0.50;95823.00;;;;6152328;23;20398;-67
2020/12/31 00:50:00;;;;;;;7.67;5.97;;;0.80;99.90;-0.40;95807.00;;;;6152632;23;20401;-69
2020/12/31 00:52:27;;;;;;;8.53;6.63;;;0.80;99.90;-0.40;95811.00;;;;6152322;23;21135;-68
2020/12/31 00:54:55;;;;;;;7.60;6.30;;;0.80;99.90;-0.50;95819.00;;;;6152522;23;20394;-68
2020/12/31 00:57:22;;;;;;;6.60;5.20;;;0.80;99.90;-0.40;95822.00;;;;6152713;23;20420;-69
2020/12/31 00:59:50;;;;;;;6.87;5.13;;;0.80;99.90;-0.40;95821.00;;;;6152645;23;20919;-68
2020/12/31 01:02:18;;;;;;;6.83;5.30;;;0.80;99.90;-0.40;95818.00;;;;6152404;23;20927;-68
2020/12/31 01:04:45;;;;;;;6.27;5.50;;;0.80;99.90;-0.50;95826.00;;;;6153120;23;20409;-68
2020/12/31 01:07:16;;;;;;;7.13;5.10;;;0.80;99.90;-0.40;95827.00;;;;6150829;23;20433;-68
2020/12/31 01:09:44;;;;;;;6.97;5.23;;;0.80;99.90;-0.40;95822.00;;;;6152731;23;20428;-67
2020/12/31 01:12:12;;;;;;;5.80;4.80;;;0.80;99.90;-0.40;95828.00;;;;6152075;23;20429;-68
2020/12/31 01:14:39;;;;;;;5.97;4.57;;;0.80;99.90;-0.40;95831.00;;;;6152807;23;20405;-68
2020/12/31 01:17:07;;;;;;;5.53;4.53;;;0.90;99.90;-0.40;95830.00;;;;6151690;23;20784;-68
2020/12/31 01:19:35;;;;;;;5.33;4.67;;;0.80;99.90;-0.40;95835.00;;;;6152966;23;20409;-67
2020/12/31 01:22:03;;;;;;;12.00;6.00;;;0.80;99.90;-0.40;95831.00;;;;6152153;23;20440;-67
2020/12/31 01:24:30;;;;;;;6.97;5.23;;;0.80;99.90;-0.40;95824.00;;;;6152919;23;20409;-68
2020/12/31 01:26:58;;;;;;;6.90;5.13;;;0.80;99.90;-0.40;95821.00;;;;6152122;23;20461;-67
2020/12/31 01:29:25;;;;;;;7.13;4.93;;;0.90;99.90;-0.40;95818.00;;;;6152545;23;20414;-67
2020/12/31 01:31:53;;;;;;;5.50;4.67;;;0.90;99.90;-0.50;95826.00;;;;6152212;23;20432;-68
2020/12/31 01:34:21;;;;;;;7.30;5.47;;;0.90;99.90;-0.50;95817.00;;;;6152735;23;20398;-68
2020/12/31 01:36:53;;;;;;;7.93;5.40;;;0.80;99.90;-0.50;95818.00;;;;6151862;23;20409;-68
2020/12/31 01:39:21;;;;;;;5.97;4.47;;;0.80;99.90;-0.50;95830.00;;;;6152515;23;20394;-68
2020/12/31 01:41:49;;;;;;;5.70;4.10;;;0.80;99.90;-0.40;95842.00;;;;6151668;23;21086;-68
2020/12/31 01:44:17;;;;;;;5.47;4.90;;;0.80;99.90;-0.40;95837.00;;;;6152755;23;20421;-68
2020/12/31 01:46:47;;;;;;;7.43;5.43;;;0.80;99.90;-0.40;95833.00;;;;6152029;23;20914;-68
2020/12/31 01:49:18;;;;;;;6.47;5.17;;;0.80;99.90;-0.50;95844.00;;;;6152291;23;20401;-68
2020/12/31 01:51:50;;;;;;;6.43;4.87;;;0.80;99.90;-0.50;95839.00;;;;6151745;23;20437;-68
2020/12/31 01:54:18;;;;;;;6.53;5.27;;;0.80;99.90;-0.40;95849.00;;;;6152116;23;20405;-69
2020/12/31 01:56:49;;;;;;;6.10;5.00;;;0.80;99.90;-0.40;95849.00;;;;6152227;23;20753;-68
2020/12/31 01:59:17;;;;;;;7.37;5.53;;;0.80;99.90;-0.40;95853.00;;;;6152217;23;20730;-67
2020/12/31 02:01:45;;;;;;;7.87;4.47;;;0.80;99.90;-0.40;95849.00;;;;6152189;23;20433;-67
2020/12/31 02:04:13;;;;;;;6.83;5.40;;;0.90;99.90;-0.30;95847.00;;;;6152368;23;20418;-67
2020/12/31 02:06:41;;;;;;;6.20;4.67;;;0.90;99.90;-0.40;95844.00;;;;6152177;23;20445;-68
2020/12/31 02:09:10;;;;;;;6.20;5.30;;;0.90;99.90;-0.40;95858.00;;;;6151835;23;20444;-68
2020/12/31 02:11:38;;;;;;;6.67;5.20;;;0.90;99.90;-0.40;95860.00;;;;6152280;23;20449;-67
2020/12/31 02:14:06;;;;;;;9.73;6.03;;;0.90;99.90;-0.30;95860.00;;;;6152915;23;20405;-68
2020/12/31 02:16:36;;;;;;;5.67;4.63;;;0.90;99.90;-0.40;95843.00;;;;6151667;23;20886;-69
2020/12/31 02:19:08;;;;;;;7.13;4.67;;;0.90;99.90;-0.30;95864.00;;;;6152139;23;20397;-69
2020/12/31 02:21:37;;;;;;;8.13;5.67;;;0.90;99.90;-0.30;95861.00;;;;6152345;23;20453;-69
2020/12/31 02:24:08;;;;;;;7.30;5.07;;;0.90;99.90;-0.30;95855.00;;;;6152773;23;20398;-69
2020/12/31 02:26:37;;;;;;;6.43;5.17;;;0.90;99.90;-0.30;95874.00;;;;6152593;23;20910;-68
2020/12/31 02:29:07;;;;;;;4.83;3.83;;;0.90;99.90;-0.20;95866.00;;;;6154326;23;20417;-68
2020/12/31 02:31:36;;;;;;;9.90;5.27;;;1.00;99.90;-0.10;95871.00;;;;6153961;23;20425;-68
2020/12/31 02:34:05;;;;;;;7.37;5.73;;;1.00;99.90;-0.10;95878.00;;;;6154103;23;20413;-68
2020/12/31 02:36:35;;;;;;;7.10;5.87;;;1.00;99.90;-0.10;95871.00;;;;6154278;23;20404;-68
2020/12/31 02:39:07;;;;;;;5.90;5.10;;;1.10;99.90;-0.10;95874.00;;;;6153534;23;20393;-68
2020/12/31 02:41:35;;;;;;;6.53;5.13;;;1.10;99.90;-0.20;95874.00;;;;6153600;23;20433;-68
2020/12/31 02:44:04;;;;;;;7.83;5.33;;;1.10;99.90;-0.40;95872.00;;;;6154092;23;20401;-68
2020/12/31 02:46:31;;;;;;;8.43;6.37;;;1.00;99.90;-0.30;95889.00;;;;6153657;23;20441;-68
2020/12/31 02:48:59;;;;;;;16.30;10.37;;;1.00;99.90;-0.30;95887.00;;;;6153653;23;20473;-68
2020/12/31 02:51:27;;;;;;;39.57;19.67;;;1.00;99.90;-0.20;95896.00;;;;6153941;23;20433;-68
2020/12/31 02:53:55;;;;;;;21.53;11.93;;;1.00;99.90;-0.20;95894.00;;;;6154055;23;20417;-68
2020/12/31 02:56:24;;;;;;;14.90;9.97;;;1.00;99.90;-0.20;95892.00;;;;6153945;23;20409;-68
2020/12/31 02:58:52;;;;;;;10.93;6.80;;;1.10;99.90;-0.20;95898.00;;;;6153720;23;20496;-68
2020/12/31 03:01:21;;;;;;;10.50;7.00;;;1.00;99.90;-0.30;95897.00;;;;6153598;23;20452;-68
2020/12/31 03:03:49;;;;;;;13.83;6.77;;;1.00;99.90;-0.10;95908.00;;;;6153729;23;20409;-68
2020/12/31 03:06:17;;;;;;;9.73;6.70;;;1.10;99.90;0.00;95894.00;;;;6154245;23;20449;-68
2020/12/31 03:08:45;;;;;;;10.00;6.67;;;1.10;99.90;0.00;95898.00;;;;6151470;23;21013;-68
2020/12/31 03:11:17;;;;;;;13.20;8.43;;;1.20;99.90;0.00;95904.00;;;;6153655;23;20443;-68
2020/12/31 03:13:45;;;;;;;14.83;8.60;;;1.20;99.90;-0.10;95900.00;;;;6153549;23;20428;-68
2020/12/31 03:16:13;;;;;;;15.27;8.93;;;1.20;99.90;-0.10;95896.00;;;;6153766;23;20397;-68
2020/12/31 03:18:40;;;;;;;14.67;8.33;;;1.20;99.90;0.00;95885.00;;;;6153006;23;20417;-68
2020/12/31 03:21:09;;;;;;;12.10;7.77;;;1.20;99.90;0.00;95890.00;;;;6153357;23;20433;-69
2020/12/31 03:23:37;;;;;;;11.77;7.23;;;1.20;99.90;0.00;95880.00;;;;6153687;23;20410;-68
2020/12/31 03:26:05;;;;;;;8.33;5.73;;;1.20;99.90;0.00;95882.00;;;;6154111;23;20981;-68
2020/12/31 03:28:33;;;;;;;9.63;5.70;;;1.20;99.90;0.00;95871.00;;;;6153010;23;20397;-68
2020/12/31 03:31:01;;;;;;;8.37;5.17;;;1.30;99.90;-0.10;95885.00;;;;6153750;23;20437;-68
2020/12/31 03:33:29;;;;;;;7.27;5.20;;;1.20;99.90;-0.10;95887.00;;;;6153254;23;20397;-68
2020/12/31 03:35:56;;;;;;;6.80;5.30;;;1.20;99.90;0.00;95891.00;;;;6153756;23;20753;-68
2020/12/31 03:38:24;;;;;;;8.47;5.60;;;1.20;99.90;0.00;95879.00;;;;6152072;23;20432;-68
2020/12/31 03:40:51;;;;;;;7.13;6.43;;;1.10;99.90;0.00;95876.00;;;;6153618;23;20424;-68
2020/12/31 03:43:19;;;;;;;7.67;4.80;;;1.20;99.90;0.00;95882.00;;;;6152905;23;20753;-69
2020/12/31 03:45:46;;;;;;;7.47;5.13;;;1.30;99.90;0.00;95871.00;;;;6153808;23;20513;-68
2020/12/31 03:48:14;;;;;;;7.93;5.90;;;1.20;99.90;0.00;95871.00;;;;6152429;23;20394;-69
2020/12/31 03:50:43;;;;;;;9.20;5.00;;;1.20;99.90;0.00;95877.00;;;;6153609;23;20408;-68
2020/12/31 03:53:10;;;;;;;6.70;4.77;;;1.20;99.90;-0.10;95870.00;;;;6153239;23;20753;-68
2020/12/31 03:55:38;;;;;;;6.47;4.87;;;1.20;99.90;0.00;95862.00;;;;6153285;23;20393;-68
2020/12/31 03:58:06;;;;;;;7.30;5.27;;;1.20;99.90;0.00;95860.00;;;;6152697;23;20458;-68
2020/12/31 04:00:33;;;;;;;5.27;4.40;;;1.20;99.90;0.00;95868.00;;;;6152320;23;20405;-68
2020/12/31 04:03:01;;;;;;;6.90;5.20;;;1.20;99.90;0.00;95859.00;;;;6151251;23;20398;-68
2020/12/31 04:05:29;;;;;;;6.30;4.90;;;1.20;99.90;-0.10;95862.00;;;;6150910;23;20409;-68
2020/12/31 04:07:56;;;;;;;8.20;5.80;;;1.20;99.90;-0.10;95874.00;;;;6150108;23;20450;-68
2020/12/31 04:10:25;;;;;;;7.87;5.20;;;1.20;99.90;-0.10;95861.00;;;;6151014;23;20421;-68
2020/12/31 04:12:53;;;;;;;7.23;5.00;;;1.20;99.90;-0.10;95863.00;;;;6150497;23;20433;-68
2020/12/31 04:15:20;;;;;;;4.63;4.17;;;1.20;99.90;0.00;95873.00;;;;6151429;23;20416;-68
2020/12/31 04:17:48;;;;;;;5.47;4.93;;;1.20;99.90;0.00;95861.00;;;;6150050;23;20417;-68
2020/12/31 04:20:15;;;;;;;6.57;5.07;;;1.20;99.90;0.00;95867.00;;;;6151161;23;20409;-68
2020/12/31 04:22:44;;;;;;;6.23;4.50;;;1.20;99.90;0.00;95878.00;;;;6150261;23;20425;-68
2020/12/31 04:25:11;;;;;;;6.47;5.60;;;1.20;99.90;0.00;95864.00;;;;6151351;23;20394;-68
2020/12/31 04:27:39;;;;;;;6.07;5.30;;;1.20;99.90;0.00;95871.00;;;;6149643;23;20445;-69
2020/12/31 04:30:06;;;;;;;5.80;4.37;;;1.20;99.90;0.00;95877.00;;;;6150678;23;20957;-68
2020/12/31 04:32:34;;;;;;;5.03;4.50;;;1.20;99.90;0.00;95864.00;;;;6150403;23;20434;-69
2020/12/31 04:35:01;;;;;;;11.27;5.40;;;1.20;99.90;0.00;95870.00;;;;6151021;23;20433;-68
2020/12/31 04:37:29;;;;;;;6.73;5.13;;;1.20;99.90;0.10;95869.00;;;;6150228;23;20844;-68
2020/12/31 04:39:57;;;;;;;6.50;4.70;;;1.30;99.90;0.10;95874.00;;;;6150412;23;20412;-68
2020/12/31 04:42:34;;;;;;;4.77;3.80;;;1.30;99.90;0.00;95874.00;;;;6150146;23;20430;-68
2020/12/31 04:45:03;;;;;;;5.57;4.07;;;1.30;99.90;0.00;95868.00;;;;6151409;23;20394;-68
2020/12/31 04:47:36;;;;;;;5.53;4.80;;;1.30;99.90;0.00;95873.00;;;;6150003;23;20445;-68
2020/12/31 04:50:05;;;;;;;6.43;4.80;;;1.20;99.90;-0.10;95876.00;;;;6150765;23;20390;-68
2020/12/31 04:52:34;;;;;;;5.00;4.43;;;1.20;99.90;-0.10;95863.00;;;;6149674;23;20927;-68
2020/12/31 04:55:02;;;;;;;6.23;5.03;;;1.20;99.90;-0.10;95866.00;;;;6150724;23;20736;-68
2020/12/31 04:57:30;;;;;;;6.20;4.13;;;1.40;99.90;-0.10;95878.00;;;;6149824;23;20840;-69
2020/12/31 04:59:59;;;;;;;6.97;4.90;;;1.20;99.90;-0.10;95871.00;;;;6150681;23;20417;-68
2020/12/31 05:02:27;;;;;;;5.77;4.70;;;1.20;99.90;-0.10;95882.00;;;;6150217;23;20982;-68
2020/12/31 05:04:55;;;;;;;5.97;4.47;;;1.20;99.90;-0.10;95875.00;;;;6150518;23;20902;-68
2020/12/31 05:07:23;;;;;;;5.70;4.53;;;1.20;99.90;-0.10;95863.00;;;;6149867;23;20958;-68
2020/12/31 05:10:10;;;;;;;5.33;4.77;;;1.10;99.90;0.00;95869.00;;;;6150331;23;20421;-68
2020/12/31 05:12:39;;;;;;;6.80;4.83;;;0.60;99.90;-0.10;95873.00;;;;6150666;23;20460;-68
2020/12/31 05:15:06;;;;;;;6.77;4.60;;;1.20;99.90;0.00;95869.00;;;;6150920;23;20393;-68
2020/12/31 05:17:34;;;;;;;6.73;4.40;;;1.20;99.90;0.00;95870.00;;;;6150022;23;20470;-68
2020/12/31 05:20:14;;;;;;;4.83;4.33;;;1.20;99.90;-0.10;95886.00;;;;6150740;23;20460;-69
2020/12/31 05:22:42;;;;;;;5.50;4.50;;;1.20;99.90;-0.10;95880.00;;;;6150276;23;20761;-68
2020/12/31 05:25:10;;;;;;;4.93;4.40;;;1.20;99.90;-0.10;95880.00;;;;6150879;23;20723;-69
2020/12/31 05:27:37;;;;;;;5.77;4.90;;;1.20;99.90;-0.10;95878.00;;;;6149615;23;20434;-69
2020/12/31 05:30:07;;;;;;;6.73;4.80;;;1.20;99.90;-0.10;95873.00;;;;6151267;23;20394;-68
2020/12/31 05:32:37;;;;;;;5.77;4.70;;;1.20;99.90;-0.10;95878.00;;;;6150732;23;20788;-68
2020/12/31 05:35:12;;;;;;;5.97;4.80;;;1.20;99.90;-0.10;95871.00;;;;6150949;23;20426;-69
2020/12/31 05:37:40;;;;;;;4.97;4.30;;;1.20;99.90;-0.10;95872.00;;;;6150479;23;20397;-68
2020/12/31 05:40:10;;;;;;;4.93;4.20;;;1.20;99.90;-0.10;95885.00;;;;6150716;23;20394;-68
2020/12/31 05:42:41;;;;;;;5.47;4.43;;;1.20;99.90;-0.10;95882.00;;;;6150243;23;20436;-68
2020/12/31 05:45:13;;;;;;;5.50;4.03;;;1.20;99.90;-0.10;95871.00;;;;6150222;23;20405;-68
2020/12/31 05:47:49;;;;;;;5.57;4.07;;;1.10;99.90;-0.20;95879.00;;;;6149858;23;20970;-68
2020/12/31 05:50:22;;;;;;;5.57;4.13;;;1.10;99.90;-0.10;95888.00;;;;6150507;23;20390;-69
2020/12/31 05:52:51;;;;;;;5.70;4.27;;;1.10;99.90;-0.10;95882.00;;;;6150422;23;20429;-68
2020/12/31 05:55:20;;;;;;;5.33;4.30;;;1.20;99.90;-0.20;95882.00;;;;6150254;23;20855;-68
2020/12/31 05:57:51;;;;;;;4.97;4.40;;;1.10;99.90;-0.20;95886.00;;;;6149658;23;20454;-69
2020/12/31 06:00:21;;;;;;;6.13;4.70;;;1.10;99.90;-0.20;95884.00;;;;6150496;23;20397;-68
2020/12/31 06:02:52;;;;;;;4.87;4.20;;;1.10;99.90;-0.20;95878.00;;;;6152014;23;20436;-69
2020/12/31 06:05:22;;;;;;;4.37;3.97;;;1.10;99.90;-0.20;95874.00;;;;6152588;23;20394;-68
2020/12/31 06:07:51;;;;;;;6.07;4.30;;;1.00;99.90;-0.20;95888.00;;;;6151097;23;20492;-68
2020/12/31 06:10:24;;;;;;;5.20;4.70;;;1.10;99.90;-0.20;95886.00;;;;6152375;23;20433;-68
2020/12/31 06:12:57;;;;;;;5.97;4.00;;;1.10;99.90;-0.30;95891.00;;;;6152226;23;20429;-69
2020/12/31 06:15:28;;;;;;;4.90;3.80;;;1.00;99.90;-0.30;95896.00;;;;6152608;23;20781;-68
2020/12/31 06:17:57;;;;;;;4.97;4.23;;;1.00;99.90;-0.30;95889.00;;;;6151655;23;20477;-68
2020/12/31 06:20:27;;;;;;;5.03;3.70;;;1.00;99.90;-0.20;95892.00;;;;6151630;23;20441;-68
2020/12/31 06:23:04;;;;;;;5.23;4.27;;;1.00;99.90;-0.30;95892.00;;;;6152067;23;20429;-68
2020/12/31 06:25:42;;;;;;;6.20;4.60;;;1.00;99.90;-0.30;95898.00;;;;6151970;23;20390;-68
2020/12/31 06:28:13;;;;;;;5.33;3.63;;;1.00;99.90;-0.30;95903.00;;;;6151352;23;20436;-68
2020/12/31 06:30:43;;;;;;;4.87;4.17;;;1.00;99.90;-0.30;95897.00;;;;6152006;23;20401;-68
2020/12/31 06:33:15;;;;;;;5.67;3.53;;;1.00;99.90;-0.30;95901.00;;;;6150087;23;20401;-69
2020/12/31 06:35:43;;;;;;;4.97;4.47;;;1.00;99.90;-0.30;95898.00;;;;6151631;23;20784;-68
2020/12/31 06:38:11;;;;;;;5.83;4.07;;;1.00;99.90;-0.30;95898.00;;;;6151272;23;20420;-69
2020/12/31 06:40:39;;;;;;;4.47;3.60;;;1.00;99.90;-0.30;95893.00;;;;6151405;23;21054;-69
2020/12/31 06:43:09;;;;;;;6.53;3.87;;;1.00;99.90;-0.30;95903.00;;;;6149831;23;20418;-68
2020/12/31 06:45:43;;;;;;;6.17;4.97;;;1.00;99.90;-0.40;95895.00;;;;6151490;23;20883;-69
2020/12/31 06:48:37;;;;;;;6.20;4.43;;;1.00;99.90;-0.40;95899.00;;;;6151406;23;20440;-69
2020/12/31 06:51:07;;;;;;;6.00;5.20;;;0.90;99.90;-0.50;95899.00;;;;6151760;23;20461;-68
2020/12/31 06:53:38;;;;;;;8.43;6.10;;;0.90;99.90;-0.50;95889.00;;;;6151074;23;20393;-68
2020/12/31 06:56:08;;;;;;;13.27;9.27;;;0.80;99.90;-0.50;95891.00;;;;6151785;23;20401;-68
2020/12/31 06:58:36;;;;;;;11.97;9.50;;;0.80;99.90;-0.50;95890.00;;;;6150116;23;20396;-68
2020/12/31 07:01:26;;;;;;;9.73;6.17;;;1.80;99.90;-0.50;95900.00;;;;6151179;23;20934;-68
2020/12/31 07:03:54;;;;;;;10.00;6.30;;;0.80;99.90;-0.50;95902.00;;;;6151125;23;20401;-68
2020/12/31 07:06:32;;;;;;;15.83;10.27;;;0.80;99.90;-0.50;95903.00;;;;6151296;23;20488;-68
2020/12/31 07:09:04;;;;;;;26.50;15.77;;;0.80;99.90;-0.50;95894.00;;;;6150888;23;20456;-68
2020/12/31 07:11:36;;;;;;;23.60;15.60;;;0.80;99.90;-0.50;95899.00;;;;6151698;23;20425;-68
2020/12/31 07:14:23;;;;;;;19.13;10.50;;;0.80;99.90;-0.50;95905.00;;;;6150935;23;20401;-68
2020/12/31 07:17:06;;;;;;;12.73;8.73;;;0.70;99.90;-0.50;95899.00;;;;6150448;23;20397;-68
2020/12/31 07:19:36;;;;;;;11.63;8.37;;;0.80;99.90;-0.50;95908.00;;;;6151401;23;20401;-69
2020/12/31 07:22:22;;;;;;;10.00;7.13;;;0.80;99.90;-0.50;95910.00;;;;6151153;23;20512;-68
2020/12/31 07:24:55;;;;;;;10.80;7.07;;;0.80;99.90;-0.40;95905.00;;;;6151272;23;20425;-68
2020/12/31 07:27:28;;;;;;;8.27;6.37;;;0.80;99.90;-0.40;95906.00;;;;6150605;23;20788;-69
2020/12/31 07:30:13;;;;;;;7.47;6.50;;;0.90;99.90;-0.40;95896.00;;;;6151702;23;20409;-68
2020/12/31 07:32:55;;;;;;;7.70;5.00;;;0.90;99.90;-0.30;95896.00;;;;6150235;23;20432;-68
2020/12/31 07:35:29;;;;;;;6.73;5.40;;;0.90;99.90;-0.20;95897.00;;;;6150875;23;20434;-69
2020/12/31 07:37:58;;;;;;;6.03;5.10;;;1.00;99.90;-0.20;95896.00;;;;6150607;23;20489;-69
2020/12/31 07:40:43;;;;;;;6.10;4.50;;;1.00;99.90;-0.20;95894.00;;;;6151084;23;20393;-68
2020/12/31 07:43:15;;;;;;;6.73;5.03;;;1.00;99.90;-0.10;95912.00;;;;6150654;23;20425;-68
2020/12/31 07:45:48;;;;;;;4.70;4.23;;;1.00;99.90;-0.10;95902.00;;;;6150814;23;20398;-68
2020/12/31 07:48:16;;;;;;;7.73;5.57;;;1.10;99.90;-0.10;95896.00;;;;6150658;23;20429;-68
2020/12/31 07:50:45;;;;;;;5.83;4.83;;;1.10;99.90;0.00;95896.00;;;;6150654;23;20470;-69
2020/12/31 07:53:13;;;;;;;5.20;4.70;;;1.10;99.90;0.10;95889.00;;;;6150799;23;20390;-68
2020/12/31 07:55:48;;;;;;;12.57;7.87;;;1.20;99.90;0.10;95892.00;;;;6151586;23;20386;-68
2020/12/31 07:58:20;;;;;;;7.57;6.33;;;1.20;99.90;0.10;95894.00;;;;6149716;23;20397;-68
2020/12/31 08:00:58;;;;;;;5.77;4.30;;;1.30;99.90;0.10;95892.00;;;;6150014;23;20417;-68
2020/12/31 08:03:25;;;;;;;9.50;7.60;;;1.30;99.90;0.20;95887.00;;;;6150820;23;20949;-68
2020/12/31 08:05:57;;;;;;;12.93;7.20;;;1.30;99.90;0.20;95901.00;;;;6151318;23;20452;-68
2020/12/31 08:08:24;;;;;;;10.73;7.53;;;1.40;99.90;0.10;95899.00;;;;6149514;23;20444;-68
2020/12/31 08:10:52;;;;;;;9.27;7.33;;;1.30;99.90;0.20;95894.00;;;;6149411;23;20425;-68
2020/12/31 08:13:21;;;;;;;8.83;6.93;;;1.40;99.90;0.20;95892.00;;;;6149334;23;20433;-69
2020/12/31 08:15:53;;;;;;;9.47;7.07;;;1.40;99.90;0.30;95904.00;;;;6149651;23;20506;-68
2020/12/31 08:18:23;;;;;;;9.40;7.47;;;1.50;99.90;0.30;95896.00;;;;6147682;23;20457;-68
2020/12/31 08:20:52;;;;;;;8.17;6.73;;;1.50;99.90;0.30;95901.00;;;;6149166;23;20796;-68
2020/12/31 08:23:24;;;;;;;10.60;7.13;;;1.50;99.90;0.40;95895.00;;;;6146381;23;20921;-68
2020/12/31 08:25:55;;;;;;;14.87;10.43;;;1.60;99.90;0.50;95894.00;;;;6148638;23;20433;-67
2020/12/31 08:28:24;;;;;;;11.37;8.47;;;1.60;99.90;0.50;95896.00;;;;6148894;23;20430;-68
2020/12/31 08:30:51;;;;;;;13.37;10.20;;;1.70;99.90;0.70;95886.00;;;;6148707;23;20458;-67
2020/12/31 08:33:24;;;;;;;13.03;9.47;;;1.80;99.90;0.80;95897.00;;;;6148894;23;20429;-68
2020/12/31 08:35:53;;;;;;;10.17;6.63;;;1.50;99.90;0.80;95899.00;;;;6148363;23;20416;-67
2020/12/31 08:38:22;;;;;;;9.67;7.57;;;1.90;99.90;0.80;95894.00;;;;6149462;23;20422;-67
2020/12/31 08:40:52;;;;;;;6.93;6.17;;;1.90;99.90;0.90;95900.00;;;;6149639;23;20416;-67
2020/12/31 08:43:22;;;;;;;6.97;5.87;;;1.90;99.90;1.00;95904.00;;;;6149914;23;20741;-67
2020/12/31 08:45:53;;;;;;;7.33;6.43;;;2.10;99.90;0.90;95902.00;;;;6149737;23;20410;-67
2020/12/31 08:48:23;;;;;;;7.17;6.17;;;2.10;99.90;0.80;95902.00;;;;6148780;23;20425;-69
2020/12/31 08:51:02;;;;;;;10.37;6.33;;;2.10;99.90;0.70;95897.00;;;;6150368;23;20394;-69
2020/12/31 08:53:30;;;;;;;7.87;5.83;;;2.00;99.90;0.80;95900.00;;;;6150342;23;20401;-70
2020/12/31 08:55:58;;;;;;;6.97;5.70;;;2.00;99.90;0.80;95899.00;;;;6149774;23;20436;-67
2020/12/31 08:58:31;;;;;;;6.17;4.80;;;2.00;99.90;0.80;95905.00;;;;6148937;23;20747;-69
2020/12/31 09:00:59;;;;;;;6.37;5.40;;;2.00;99.90;0.90;95912.00;;;;6149407;23;20445;-69
2020/12/31 09:03:26;;;;;;;7.77;5.47;;;2.00;99.90;1.00;95911.00;;;;6149419;23;20891;-69
2020/12/31 09:05:56;;;;;;;7.50;5.73;;;2.10;99.90;1.10;95911.00;;;;6149421;23;20389;-69
2020/12/31 09:08:24;;;;;;;4.77;4.13;;;2.10;99.90;1.10;95910.00;;;;6149097;23;20476;-67
2020/12/31 09:11:03;;;;;;;7.20;5.57;;;2.10;99.90;1.10;95918.00;;;;6119347;23;727321;-69
2020/12/31 09:13:35;;;;;;;6.80;6.07;;;2.30;99.90;1.10;95910.00;;;;6150463;23;20165;-69
2020/12/31 09:16:12;;;;;;;6.50;5.00;;;2.30;99.90;1.00;95914.00;;;;6150581;23;20390;-69
2020/12/31 09:18:40;;;;;;;6.47;5.30;;;2.30;99.90;1.10;95906.00;;;;6149990;23;20404;-69
2020/12/31 09:21:08;;;;;;;7.43;4.80;;;2.30;99.90;1.20;95910.00;;;;6149782;23;20433;-69
2020/12/31 09:23:36;;;;;;;5.50;4.57;;;2.40;99.90;1.20;95900.00;;;;6150229;23;20409;-69
2020/12/31 09:26:07;;;;;;;7.47;5.63;;;2.30;99.90;1.40;95898.00;;;;6149175;23;20888;-69
2020/12/31 09:28:39;;;;;;;5.93;4.87;;;2.40;99.90;1.50;95887.00;;;;6149037;23;20548;-69
2020/12/31 09:31:21;;;;;;;5.90;4.00;;;2.50;99.90;1.30;95892.00;;;;6149946;23;20524;-69
2020/12/31 09:33:49;;;;;;;4.67;4.27;;;2.50;99.90;1.20;95886.00;;;;6149434;23;20411;-68
2020/12/31 09:36:24;;;;;;;5.20;3.93;;;2.60;99.90;0.90;95887.00;;;;6149865;23;20863;-67
2020/12/31 09:38:52;;;;;;;9.93;5.40;;;2.40;99.90;0.80;95899.00;;;;6150454;23;20401;-69
2020/12/31 09:41:20;;;;;;;5.43;4.10;;;2.30;99.90;1.00;95893.00;;;;6150889;23;20429;-69
2020/12/31 09:43:50;;;;;;;5.17;4.30;;;2.30;99.90;0.90;95887.00;;;;6150779;23;20409;-67
2020/12/31 09:46:22;;;;;;;7.20;4.13;;;2.20;99.90;1.00;95886.00;;;;6149886;23;20394;-69
2020/12/31 09:48:50;;;;;;;5.50;5.00;;;2.20;99.90;0.90;95881.00;;;;6149987;23;20738;-68
2020/12/31 09:51:20;;;;;;;5.47;4.67;;;2.20;99.90;0.90;95882.00;;;;6150594;23;20509;-69
2020/12/31 09:53:48;;;;;;;5.17;4.47;;;2.20;99.90;1.10;95881.00;;;;6150239;23;20413;-68
2020/12/31 09:56:15;;;;;;;7.03;4.70;;;2.20;99.90;1.10;95866.00;;;;6150675;23;20512;-69
2020/12/31 09:58:43;;;;;;;5.07;4.47;;;2.30;99.90;1.40;95876.00;;;;6150307;23;20413;-68
2020/12/31 10:01:11;;;;;;;7.37;5.40;;;2.40;99.90;1.30;95878.00;;;;6150356;23;20456;-69
2020/12/31 10:03:40;;;;;;;6.07;5.30;;;2.40;99.90;1.30;95867.00;;;;6150173;23;20417;-69
2020/12/31 10:06:08;;;;;;;6.53;4.63;;;2.50;99.90;1.30;95867.00;;;;6149870;23;20540;-69
2020/12/31 10:08:35;;;;;;;6.27;4.23;;;2.50;99.90;1.10;95870.00;;;;6149675;23;20468;-69
2020/12/31 10:11:05;;;;;;;6.47;5.07;;;2.60;99.90;1.10;95864.00;;;;6149988;23;20508;-68
2020/12/31 10:13:33;;;;;;;7.60;5.37;;;2.50;99.90;1.20;95870.00;;;;6149541;23;20516;-68
2020/12/31 10:16:02;;;;;;;18.27;16.47;;;2.50;99.90;1.50;95865.00;;;;6149653;23;20410;-68
2020/12/31 10:18:30;;;;;;;47.60;42.87;;;2.50;99.90;1.80;95866.00;;;;6148915;23;20416;-69
2020/12/31 10:20:58;;;;;;;9.30;7.03;;;2.60;99.90;1.90;95867.00;;;;6148895;23;20764;-68
2020/12/31 10:23:26;;;;;;;4.97;3.90;;;2.80;99.90;2.00;95867.00;;;;6150062;23;20398;-68
2020/12/31 10:25:54;;;;;;;4.70;4.30;;;3.00;99.90;2.20;95847.00;;;;6150034;23;20440;-69
2020/12/31 10:28:22;;;;;;;4.23;3.77;;;3.20;99.90;2.70;95858.00;;;;6149278;23;20236;-68
2020/12/31 10:30:49;;;;;;;6.30;4.20;;;3.60;99.90;3.50;95850.00;;;;6146739;23;20328;-69
2020/12/31 10:33:17;;;;;;;5.80;3.53;;;4.10;99.90;4.00;95863.00;;;;6147279;23;20640;-69
2020/12/31 10:35:45;;;;;;;6.03;5.33;;;4.70;99.90;3.90;95851.00;;;;6150669;23;20221;-67
2020/12/31 10:38:14;;;;;;;4.90;4.40;;;5.30;99.90;4.30;95849.00;;;;6148861;23;20628;-67
2020/12/31 10:40:41;;;;;;;5.00;3.97;;;5.70;99.90;4.10;95845.00;;;;6150530;23;20186;-67
2020/12/31 10:43:09;;;;;;;4.57;3.53;;;5.90;99.90;4.00;95836.00;;;;6148786;23;20523;-67
2020/12/31 10:45:36;;;;;;;3.73;3.30;;;5.80;99.90;4.00;95835.00;;;;6149782;23;20816;-66
2020/12/31 10:48:08;;;;;;;4.00;3.60;;;5.80;99.90;4.10;95829.00;;;;6149631;23;20209;-67
2020/12/31 10:50:35;;;;;;;16.10;11.23;;;5.90;99.90;3.80;95825.00;;;;6151438;23;20223;-67
2020/12/31 10:53:03;;;;;;;15.47;12.47;;;5.80;99.90;4.00;95824.00;;;;6150498;23;20516;-67
2020/12/31 10:55:31;;;;;;;6.47;5.40;;;5.70;99.90;4.40;95828.00;;;;6150965;23;20182;-67
2020/12/31 10:57:59;;;;;;;7.30;4.47;;;5.90;99.90;4.60;95820.00;;;;6150897;23;20174;-69
2020/12/31 11:00:26;;;;;;;17.53;10.63;;;6.20;99.90;4.50;95813.00;;;;6149377;23;20740;-67
2020/12/31 11:02:54;;;;;;;64.70;34.60;;;6.10;99.90;4.50;95809.00;;;;6150460;23;20209;-67
2020/12/31 11:05:21;;;;;;;14.03;8.53;;;6.20;99.90;5.00;95813.00;;;;6151015;23;20167;-67
2020/12/31 11:07:49;;;;;;;19.43;12.37;;;6.50;99.90;5.20;95820.00;;;;6149362;23;20209;-67
2020/12/31 11:10:16;;;;;;;45.63;33.33;;;6.70;99.90;5.10;95814.00;;;;6150842;23;20190;-67
2020/12/31 11:12:45;;;;;;;7.97;7.00;;;6.80;99.90;5.40;95804.00;;;;6150170;23;20202;-67